sensor_id;sensor_type;location;lat;lon;timestamp;temperature;humidity
29241;DHT22;16268;49.880;8.648;2022-12-22T00:01:16;10.90;99.90
29241;DHT22;16268;49.880;8.648;2022-12-22T00:04:00;10.90;99.90
29241;DHT22;16268;49.880;8.648;2022-12-22T00:06:44;10.80;99.90
29241;DHT22;16268;49.880;8.648;2022-12-22T00:09:28;10.80;99.90
29241;DHT22;16268;49.880;8.648;2022-12-22T00:12:14;10.80;99.90
29241;DHT22;16268;49.880;8.648;2022-12-22T00:14:59;10.80;99.90
29241;DHT22;16268;49.880;8.648;2022-12-22T00:17:44;10.80;99.90
29241;DHT22;16268;49.880;8.648;2022-12-22T00:20:28;10.80;99.90
29241;DHT22;16268;49.880;8.648;2022-12-22T00:23:12;10.80;99.90
29241;DHT22;16268;49.880;8.648;2022-12-22T00:25:57;10.80;99.90
29241;DHT22;16268;49.880;8.648;2022-12-22T00:28:42;10.80;99.90
29241;DHT22;16268;49.880;8.648;2022-12-22T00:31:28;10.80;99.90
29241;DHT22;16268;49.880;8.648;2022-12-22T00:34:18;10.80;99.90
29241;DHT22;16268;49.880;8.648;2022-12-22T00:37:03;10.80;99.90
29241;DHT22;16268;49.880;8.648;2022-12-22T00:39:48;10.80;99.90
29241;DHT22;16268;49.880;8.648;2022-12-22T00:42:32;10.80;99.90
29241;DHT22;16268;49.880;8.648;2022-12-22T00:45:16;10.80;99.90
29241;DHT22;16268;49.880;8.648;2022-12-22T00:48:01;10.80;99.90
29241;DHT22;16268;49.880;8.648;2022-12-22T00:50:45;10.80;99.90
29241;DHT22;16268;49.880;8.648;2022-12-22T00:53:30;10.70;99.90
29241;DHT22;16268;49.880;8.648;2022-12-22T00:56:14;10.70;99.90
29241;DHT22;16268;49.880;8.648;2022-12-22T00:58:59;10.70;99.90
29241;DHT22;16268;49.880;8.648;2022-12-22T01:01:43;10.70;99.90
29241;DHT22;16268;49.880;8.648;2022-12-22T01:04:27;10.60;99.90
29241;DHT22;16268;49.880;8.648;2022-12-22T01:07:14;10.60;99.90
29241;DHT22;16268;49.880;8.648;2022-12-22T01:09:59;10.60;99.90
29241;DHT22;16268;49.880;8.648;2022-12-22T01:12:43;10.60;99.90
29241;DHT22;16268;49.880;8.648;2022-12-22T01:15:28;10.60;99.90
29241;DHT22;16268;49.880;8.648;2022-12-22T01:18:13;10.60;99.90
29241;DHT22;16268;49.880;8.648;2022-12-22T01:20:57;10.60;99.90
29241;DHT22;16268;49.880;8.648;2022-12-22T01:23:41;10.50;99.90
29241;DHT22;16268;49.880;8.648;2022-12-22T01:26:26;10.50;99.90
29241;DHT22;16268;49.880;8.648;2022-12-22T01:29:10;10.50;99.90
29241;DHT22;16268;49.880;8.648;2022-12-22T01:31:54;10.50;99.90
29241;DHT22;16268;49.880;8.648;2022-12-22T01:34:39;10.50;99.90
29241;DHT22;16268;49.880;8.648;2022-12-22T01:37:24;10.50;99.90
29241;DHT22;16268;49.880;8.648;2022-12-22T01:40:13;10.50;99.90
29241;DHT22;16268;49.880;8.648;2022-12-22T01:42:58;10.50;99.90
29241;DHT22;16268;49.880;8.648;2022-12-22T01:45:42;10.50;99.90
29241;DHT22;16268;49.880;8.648;2022-12-22T01:48:29;10.50;99.90
29241;DHT22;16268;49.880;8.648;2022-12-22T01:51:17;10.50;99.90
29241;DHT22;16268;49.880;8.648;2022-12-22T01:54:02;10.50;99.90
29241;DHT22;16268;49.880;8.648;2022-12-22T01:56:48;10.50;99.90
29241;DHT22;16268;49.880;8.648;2022-12-22T01:59:33;10.50;99.90
29241;DHT22;16268;49.880;8.648;2022-12-22T02:02:18;10.50;99.90
29241;DHT22;16268;49.880;8.648;2022-12-22T02:05:04;10.50;99.90
29241;DHT22;16268;49.880;8.648;2022-12-22T02:22:56;10.40;99.90
29241;DHT22;16268;49.880;8.648;2022-12-22T02:26:01;10.40;99.90
29241;DHT22;16268;49.880;8.648;2022-12-22T02:28:50;10.40;99.90
29241;DHT22;16268;49.880;8.648;2022-12-22T02:31:39;10.40;99.90
29241;DHT22;16268;49.880;8.648;2022-12-22T02:34:23;10.40;99.90
29241;DHT22;16268;49.880;8.648;2022-12-22T02:41:08;10.50;99.90
29241;DHT22;16268;49.880;8.648;2022-12-22T02:43:50;10.50;99.90
29241;DHT22;16268;49.880;8.648;2022-12-22T02:46:39;10.50;99.90
29241;DHT22;16268;49.880;8.648;2022-12-22T02:49:50;10.50;99.90
29241;DHT22;16268;49.880;8.648;2022-12-22T02:52:37;10.50;99.90
29241;DHT22;16268;49.880;8.648;2022-12-22T02:55:24;10.50;99.90
29241;DHT22;16268;49.880;8.648;2022-12-22T02:58:10;10.50;99.90
29241;DHT22;16268;49.880;8.648;2022-12-22T03:00:55;10.50;99.90
29241;DHT22;16268;49.880;8.648;2022-12-22T03:03:40;10.50;99.90
29241;DHT22;16268;49.880;8.648;2022-12-22T03:06:24;10.50;99.90
29241;DHT22;16268;49.880;8.648;2022-12-22T03:09:08;10.50;99.90
29241;DHT22;16268;49.880;8.648;2022-12-22T03:11:52;10.50;99.90
29241;DHT22;16268;49.880;8.648;2022-12-22T03:14:37;10.50;99.90
29241;DHT22;16268;49.880;8.648;2022-12-22T03:17:21;10.60;99.90
29241;DHT22;16268;49.880;8.648;2022-12-22T03:20:05;10.50;99.90
29241;DHT22;16268;49.880;8.648;2022-12-22T03:22:53;10.60;99.90
29241;DHT22;16268;49.880;8.648;2022-12-22T03:25:37;10.60;99.90
29241;DHT22;16268;49.880;8.648;2022-12-22T03:28:23;10.60;99.90
29241;DHT22;16268;49.880;8.648;2022-12-22T03:31:00;10.60;99.90
29241;DHT22;16268;49.880;8.648;2022-12-22T03:33:27;10.60;99.90
29241;DHT22;16268;49.880;8.648;2022-12-22T03:35:53;10.60;99.90
29241;DHT22;16268;49.880;8.648;2022-12-22T03:38:18;10.60;99.90
29241;DHT22;16268;49.880;8.648;2022-12-22T03:40:44;10.60;99.90
29241;DHT22;16268;49.880;8.648;2022-12-22T03:43:11;10.60;99.90
29241;DHT22;16268;49.880;8.648;2022-12-22T03:45:56;10.70;99.90
29241;DHT22;16268;49.880;8.648;2022-12-22T03:48:40;10.70;99.90
29241;DHT22;16268;49.880;8.648;2022-12-22T03:51:06;10.60;99.90
29241;DHT22;16268;49.880;8.648;2022-12-22T03:53:32;10.70;99.90
29241;DHT22;16268;49.880;8.648;2022-12-22T03:55:57;10.60;99.90
29241;DHT22;16268;49.880;8.648;2022-12-22T03:58:23;10.70;99.90
29241;DHT22;16268;49.880;8.648;2022-12-22T04:00:48;10.70;99.90
29241;DHT22;16268;49.880;8.648;2022-12-22T04:03:14;10.70;99.90
29241;DHT22;16268;49.880;8.648;2022-12-22T04:05:40;10.70;99.90
29241;DHT22;16268;49.880;8.648;2022-12-22T04:08:05;10.70;99.90
29241;DHT22;16268;49.880;8.648;2022-12-22T04:10:31;10.70;99.90
29241;DHT22;16268;49.880;8.648;2022-12-22T04:13:15;10.70;99.90
29241;DHT22;16268;49.880;8.648;2022-12-22T04:15:41;10.80;99.90
29241;DHT22;16268;49.880;8.648;2022-12-22T04:18:06;10.80;99.90
29241;DHT22;16268;49.880;8.648;2022-12-22T04:20:32;10.80;99.90
29241;DHT22;16268;49.880;8.648;2022-12-22T04:22:58;10.80;99.90
29241;DHT22;16268;49.880;8.648;2022-12-22T04:25:24;10.80;99.90
29241;DHT22;16268;49.880;8.648;2022-12-22T04:27:50;10.80;99.90
29241;DHT22;16268;49.880;8.648;2022-12-22T04:30:16;10.80;99.90
29241;DHT22;16268;49.880;8.648;2022-12-22T04:32:42;10.80;99.90
29241;DHT22;16268;49.880;8.648;2022-12-22T04:35:08;10.90;99.90
29241;DHT22;16268;49.880;8.648;2022-12-22T04:37:34;10.80;99.90
29241;DHT22;16268;49.880;8.648;2022-12-22T04:39:59;10.80;99.90
29241;DHT22;16268;49.880;8.648;2022-12-22T04:42:25;10.80;99.90
29241;DHT22;16268;49.880;8.648;2022-12-22T04:44:51;10.90;99.90
29241;DHT22;16268;49.880;8.648;2022-12-22T04:47:16;10.80;99.90
29241;DHT22;16268;49.880;8.648;2022-12-22T04:49:42;10.80;99.90
29241;DHT22;16268;49.880;8.648;2022-12-22T04:52:08;10.80;99.90
29241;DHT22;16268;49.880;8.648;2022-12-22T04:54:33;10.70;99.90
29241;DHT22;16268;49.880;8.648;2022-12-22T04:56:59;10.70;99.90
29241;DHT22;16268;49.880;8.648;2022-12-22T04:59:25;10.70;99.90
29241;DHT22;16268;49.880;8.648;2022-12-22T05:01:50;10.70;99.90
29241;DHT22;16268;49.880;8.648;2022-12-22T05:04:16;10.70;99.90
29241;DHT22;16268;49.880;8.648;2022-12-22T05:06:41;10.70;99.90
29241;DHT22;16268;49.880;8.648;2022-12-22T05:09:07;10.70;99.90
29241;DHT22;16268;49.880;8.648;2022-12-22T05:11:32;10.60;99.90
29241;DHT22;16268;49.880;8.648;2022-12-22T05:13:58;10.70;99.90
29241;DHT22;16268;49.880;8.648;2022-12-22T05:16:23;10.60;99.90
29241;DHT22;16268;49.880;8.648;2022-12-22T05:18:49;10.60;99.90
29241;DHT22;16268;49.880;8.648;2022-12-22T05:21:17;10.60;99.90
29241;DHT22;16268;49.880;8.648;2022-12-22T05:23:44;10.70;99.90
29241;DHT22;16268;49.880;8.648;2022-12-22T05:26:10;10.70;99.90
29241;DHT22;16268;49.880;8.648;2022-12-22T05:28:36;10.70;99.90
29241;DHT22;16268;49.880;8.648;2022-12-22T05:31:10;10.70;99.90
29241;DHT22;16268;49.880;8.648;2022-12-22T05:33:36;10.70;99.90
29241;DHT22;16268;49.880;8.648;2022-12-22T05:36:03;10.70;99.90
29241;DHT22;16268;49.880;8.648;2022-12-22T05:38:28;10.70;99.90
29241;DHT22;16268;49.880;8.648;2022-12-22T05:40:54;10.70;99.90
29241;DHT22;16268;49.880;8.648;2022-12-22T05:43:20;10.70;99.90
29241;DHT22;16268;49.880;8.648;2022-12-22T05:45:46;10.70;99.90
29241;DHT22;16268;49.880;8.648;2022-12-22T05:48:11;10.70;99.90
29241;DHT22;16268;49.880;8.648;2022-12-22T05:50:37;10.70;99.90
29241;DHT22;16268;49.880;8.648;2022-12-22T05:53:03;10.70;99.90
29241;DHT22;16268;49.880;8.648;2022-12-22T05:55:29;10.70;99.90
29241;DHT22;16268;49.880;8.648;2022-12-22T05:57:55;10.70;99.90
29241;DHT22;16268;49.880;8.648;2022-12-22T06:00:21;10.70;99.90
29241;DHT22;16268;49.880;8.648;2022-12-22T06:02:47;10.70;99.90
29241;DHT22;16268;49.880;8.648;2022-12-22T06:05:13;10.70;99.90
29241;DHT22;16268;49.880;8.648;2022-12-22T06:07:39;10.70;99.90
29241;DHT22;16268;49.880;8.648;2022-12-22T06:10:08;10.70;99.90
29241;DHT22;16268;49.880;8.648;2022-12-22T06:12:34;10.70;99.90
29241;DHT22;16268;49.880;8.648;2022-12-22T06:14:59;10.80;99.90
29241;DHT22;16268;49.880;8.648;2022-12-22T06:17:25;10.80;99.90
29241;DHT22;16268;49.880;8.648;2022-12-22T06:19:51;10.70;99.90
29241;DHT22;16268;49.880;8.648;2022-12-22T06:22:16;10.80;99.90
29241;DHT22;16268;49.880;8.648;2022-12-22T06:24:42;10.80;99.90
29241;DHT22;16268;49.880;8.648;2022-12-22T06:27:07;10.80;99.90
29241;DHT22;16268;49.880;8.648;2022-12-22T06:29:35;10.80;99.90
29241;DHT22;16268;49.880;8.648;2022-12-22T06:32:01;10.80;99.90
29241;DHT22;16268;49.880;8.648;2022-12-22T06:34:26;10.90;99.90
29241;DHT22;16268;49.880;8.648;2022-12-22T06:36:52;10.90;99.90
29241;DHT22;16268;49.880;8.648;2022-12-22T06:39:17;10.90;99.90
29241;DHT22;16268;49.880;8.648;2022-12-22T06:41:43;10.90;99.90
29241;DHT22;16268;49.880;8.648;2022-12-22T06:44:27;10.90;99.90
29241;DHT22;16268;49.880;8.648;2022-12-22T06:46:53;10.90;99.90
29241;DHT22;16268;49.880;8.648;2022-12-22T06:49:19;10.90;99.90
29241;DHT22;16268;49.880;8.648;2022-12-22T06:51:45;10.90;99.90
29241;DHT22;16268;49.880;8.648;2022-12-22T06:54:10;10.90;99.90
29241;DHT22;16268;49.880;8.648;2022-12-22T06:56:36;10.90;99.90
29241;DHT22;16268;49.880;8.648;2022-12-22T06:59:01;10.90;99.90
29241;DHT22;16268;49.880;8.648;2022-12-22T07:01:27;10.90;99.90
29241;DHT22;16268;49.880;8.648;2022-12-22T07:03:53;10.90;99.90
29241;DHT22;16268;49.880;8.648;2022-12-22T07:06:18;10.90;99.90
29241;DHT22;16268;49.880;8.648;2022-12-22T07:08:47;10.90;99.90
29241;DHT22;16268;49.880;8.648;2022-12-22T07:11:13;10.90;99.90
29241;DHT22;16268;49.880;8.648;2022-12-22T07:13:39;10.90;99.90
29241;DHT22;16268;49.880;8.648;2022-12-22T07:16:06;10.90;99.90
29241;DHT22;16268;49.880;8.648;2022-12-22T07:18:34;10.80;99.90
29241;DHT22;16268;49.880;8.648;2022-12-22T07:21:02;10.80;99.90
29241;DHT22;16268;49.880;8.648;2022-12-22T07:23:29;10.90;99.90
29241;DHT22;16268;49.880;8.648;2022-12-22T07:25:55;10.80;99.90
29241;DHT22;16268;49.880;8.648;2022-12-22T07:28:21;10.80;99.90
29241;DHT22;16268;49.880;8.648;2022-12-22T07:30:47;10.90;99.90
29241;DHT22;16268;49.880;8.648;2022-12-22T07:33:13;10.90;99.90
29241;DHT22;16268;49.880;8.648;2022-12-22T07:35:38;10.90;99.90
29241;DHT22;16268;49.880;8.648;2022-12-22T07:38:04;10.90;99.90
29241;DHT22;16268;49.880;8.648;2022-12-22T07:40:29;10.90;99.90
29241;DHT22;16268;49.880;8.648;2022-12-22T07:42:56;11.00;99.90
29241;DHT22;16268;49.880;8.648;2022-12-22T07:45:23;11.00;99.90
29241;DHT22;16268;49.880;8.648;2022-12-22T07:47:48;11.00;99.90
29241;DHT22;16268;49.880;8.648;2022-12-22T07:50:16;11.00;99.90
29241;DHT22;16268;49.880;8.648;2022-12-22T07:53:02;11.00;99.90
29241;DHT22;16268;49.880;8.648;2022-12-22T07:55:30;11.00;99.90
29241;DHT22;16268;49.880;8.648;2022-12-22T07:57:56;11.10;99.90
29241;DHT22;16268;49.880;8.648;2022-12-22T08:00:23;11.00;99.90
29241;DHT22;16268;49.880;8.648;2022-12-22T08:02:55;11.00;99.90
29241;DHT22;16268;49.880;8.648;2022-12-22T08:05:23;11.10;99.90
29241;DHT22;16268;49.880;8.648;2022-12-22T08:07:49;11.10;99.90
29241;DHT22;16268;49.880;8.648;2022-12-22T08:10:15;11.10;99.90
29241;DHT22;16268;49.880;8.648;2022-12-22T08:12:41;11.10;99.90
29241;DHT22;16268;49.880;8.648;2022-12-22T08:15:08;11.20;99.90
29241;DHT22;16268;49.880;8.648;2022-12-22T08:17:34;11.20;99.90
29241;DHT22;16268;49.880;8.648;2022-12-22T08:20:00;11.30;99.90
29241;DHT22;16268;49.880;8.648;2022-12-22T08:22:25;11.30;99.90
29241;DHT22;16268;49.880;8.648;2022-12-22T08:24:55;11.40;99.90
29241;DHT22;16268;49.880;8.648;2022-12-22T08:27:47;11.40;99.90
29241;DHT22;16268;49.880;8.648;2022-12-22T08:30:15;11.50;99.90
29241;DHT22;16268;49.880;8.648;2022-12-22T08:32:41;11.60;99.90
29241;DHT22;16268;49.880;8.648;2022-12-22T08:35:08;11.60;99.90
29241;DHT22;16268;49.880;8.648;2022-12-22T08:37:36;11.60;99.90
29241;DHT22;16268;49.880;8.648;2022-12-22T08:40:13;11.60;99.90
29241;DHT22;16268;49.880;8.648;2022-12-22T08:42:41;11.70;99.90
29241;DHT22;16268;49.880;8.648;2022-12-22T08:45:07;11.70;99.90
29241;DHT22;16268;49.880;8.648;2022-12-22T08:47:35;11.80;99.90
29241;DHT22;16268;49.880;8.648;2022-12-22T08:50:01;11.80;99.90
29241;DHT22;16268;49.880;8.648;2022-12-22T08:52:26;11.80;99.90
29241;DHT22;16268;49.880;8.648;2022-12-22T08:54:52;11.80;99.90
29241;DHT22;16268;49.880;8.648;2022-12-22T08:57:17;11.80;99.90
29241;DHT22;16268;49.880;8.648;2022-12-22T08:59:43;11.80;99.90
29241;DHT22;16268;49.880;8.648;2022-12-22T09:02:08;11.70;99.90
29241;DHT22;16268;49.880;8.648;2022-12-22T09:04:35;11.80;99.90
29241;DHT22;16268;49.880;8.648;2022-12-22T09:07:00;11.80;99.90
29241;DHT22;16268;49.880;8.648;2022-12-22T09:09:33;11.80;99.90
29241;DHT22;16268;49.880;8.648;2022-12-22T09:12:00;11.80;99.90
29241;DHT22;16268;49.880;8.648;2022-12-22T09:14:26;11.80;99.90
29241;DHT22;16268;49.880;8.648;2022-12-22T09:16:52;11.90;99.90
29241;DHT22;16268;49.880;8.648;2022-12-22T09:19:17;11.90;99.90
29241;DHT22;16268;49.880;8.648;2022-12-22T09:21:43;12.00;99.90
29241;DHT22;16268;49.880;8.648;2022-12-22T09:24:09;11.90;99.90
29241;DHT22;16268;49.880;8.648;2022-12-22T09:26:35;11.90;99.90
29241;DHT22;16268;49.880;8.648;2022-12-22T09:29:01;11.90;99.90
29241;DHT22;16268;49.880;8.648;2022-12-22T09:31:28;11.90;99.90
29241;DHT22;16268;49.880;8.648;2022-12-22T09:33:53;11.90;99.90
29241;DHT22;16268;49.880;8.648;2022-12-22T09:36:22;11.80;99.90
29241;DHT22;16268;49.880;8.648;2022-12-22T09:38:48;11.90;99.90
29241;DHT22;16268;49.880;8.648;2022-12-22T09:41:21;11.90;99.90
29241;DHT22;16268;49.880;8.648;2022-12-22T09:43:47;11.90;99.90
29241;DHT22;16268;49.880;8.648;2022-12-22T09:46:23;11.90;99.90
29241;DHT22;16268;49.880;8.648;2022-12-22T09:48:50;11.90;99.90
29241;DHT22;16268;49.880;8.648;2022-12-22T09:51:16;11.90;99.90
29241;DHT22;16268;49.880;8.648;2022-12-22T09:53:44;11.90;99.90
29241;DHT22;16268;49.880;8.648;2022-12-22T09:56:15;12.00;99.90
29241;DHT22;16268;49.880;8.648;2022-12-22T09:58:41;12.00;99.90
29241;DHT22;16268;49.880;8.648;2022-12-22T10:01:31;12.00;99.90
29241;DHT22;16268;49.880;8.648;2022-12-22T10:07:31;12.10;99.90
29241;DHT22;16268;49.880;8.648;2022-12-22T10:12:42;12.10;99.90
29241;DHT22;16268;49.880;8.648;2022-12-22T10:15:11;12.10;99.90
29241;DHT22;16268;49.880;8.648;2022-12-22T10:17:37;12.10;99.90
29241;DHT22;16268;49.880;8.648;2022-12-22T10:22:54;12.10;99.90
29241;DHT22;16268;49.880;8.648;2022-12-22T10:25:39;12.10;99.90
29241;DHT22;16268;49.880;8.648;2022-12-22T10:28:08;12.10;99.90
29241;DHT22;16268;49.880;8.648;2022-12-22T10:30:36;12.00;99.90
29241;DHT22;16268;49.880;8.648;2022-12-22T10:33:10;12.00;99.90
29241;DHT22;16268;49.880;8.648;2022-12-22T10:35:54;12.10;99.90
29241;DHT22;16268;49.880;8.648;2022-12-22T10:38:29;12.10;99.90
29241;DHT22;16268;49.880;8.648;2022-12-22T10:40:58;12.20;99.90
29241;DHT22;16268;49.880;8.648;2022-12-22T10:45:55;12.30;99.90
29241;DHT22;16268;49.880;8.648;2022-12-22T10:48:33;12.30;99.90
29241;DHT22;16268;49.880;8.648;2022-12-22T10:50:59;12.30;99.90
29241;DHT22;16268;49.880;8.648;2022-12-22T10:53:47;12.30;99.90
29241;DHT22;16268;49.880;8.648;2022-12-22T10:56:42;12.30;99.90
29241;DHT22;16268;49.880;8.648;2022-12-22T10:59:19;12.20;99.90
29241;DHT22;16268;49.880;8.648;2022-12-22T11:01:45;12.20;99.90
29241;DHT22;16268;49.880;8.648;2022-12-22T11:04:25;12.10;99.90
29241;DHT22;16268;49.880;8.648;2022-12-22T11:06:53;12.00;99.90
29241;DHT22;16268;49.880;8.648;2022-12-22T11:09:19;12.00;99.90
29241;DHT22;16268;49.880;8.648;2022-12-22T11:11:53;11.90;99.90
29241;DHT22;16268;49.880;8.648;2022-12-22T11:26:10;12.10;99.90
29241;DHT22;16268;49.880;8.648;2022-12-22T11:39:39;12.10;99.90
29241;DHT22;16268;49.880;8.648;2022-12-22T11:45:30;12.10;99.90
29241;DHT22;16268;49.880;8.648;2022-12-22T11:59:07;11.80;99.90
29241;DHT22;16268;49.880;8.648;2022-12-22T12:13:04;11.40;99.90
29241;DHT22;16268;49.880;8.648;2022-12-22T12:15:53;11.40;99.90
29241;DHT22;16268;49.880;8.648;2022-12-22T12:18:45;11.30;99.90
29241;DHT22;16268;49.880;8.648;2022-12-22T12:21:24;11.20;99.90
29241;DHT22;16268;49.880;8.648;2022-12-22T12:26:57;11.30;99.90
29241;DHT22;16268;49.880;8.648;2022-12-22T12:29:27;11.30;99.90
29241;DHT22;16268;49.880;8.648;2022-12-22T12:32:12;11.40;99.90
29241;DHT22;16268;49.880;8.648;2022-12-22T12:34:43;11.50;99.90
29241;DHT22;16268;49.880;8.648;2022-12-22T12:37:21;11.50;99.90
29241;DHT22;16268;49.880;8.648;2022-12-22T12:42:43;11.60;99.90
29241;DHT22;16268;49.880;8.648;2022-12-22T12:50:51;11.60;99.90
29241;DHT22;16268;49.880;8.648;2022-12-22T12:53:18;11.70;99.90
29241;DHT22;16268;49.880;8.648;2022-12-22T12:55:53;11.70;99.90
29241;DHT22;16268;49.880;8.648;2022-12-22T12:58:46;11.60;99.90
29241;DHT22;16268;49.880;8.648;2022-12-22T13:01:46;11.70;99.90
29241;DHT22;16268;49.880;8.648;2022-12-22T13:03:57;11.70;99.90
29241;DHT22;16268;49.880;8.648;2022-12-22T13:11:44;11.70;99.90
29241;DHT22;16268;49.880;8.648;2022-12-22T13:14:09;11.70;99.90
29241;DHT22;16268;49.880;8.648;2022-12-22T13:16:37;11.70;99.90
29241;DHT22;16268;49.880;8.648;2022-12-22T13:19:18;11.70;99.90
29241;DHT22;16268;49.880;8.648;2022-12-22T13:21:47;11.70;99.90
29241;DHT22;16268;49.880;8.648;2022-12-22T13:24:14;11.70;99.90
29241;DHT22;16268;49.880;8.648;2022-12-22T13:26:42;11.70;99.90
29241;DHT22;16268;49.880;8.648;2022-12-22T13:29:27;11.70;99.90
29241;DHT22;16268;49.880;8.648;2022-12-22T13:32:03;11.70;99.90
29241;DHT22;16268;49.880;8.648;2022-12-22T13:37:23;11.70;99.90
29241;DHT22;16268;49.880;8.648;2022-12-22T13:42:47;11.50;99.90
29241;DHT22;16268;49.880;8.648;2022-12-22T13:46:00;11.40;99.90
29241;DHT22;16268;49.880;8.648;2022-12-22T13:48:23;11.40;99.90
29241;DHT22;16268;49.880;8.648;2022-12-22T13:50:52;11.40;99.90
29241;DHT22;16268;49.880;8.648;2022-12-22T13:55:56;11.40;99.90
29241;DHT22;16268;49.880;8.648;2022-12-22T13:58:26;11.40;99.90
29241;DHT22;16268;49.880;8.648;2022-12-22T14:03:38;11.30;99.90
29241;DHT22;16268;49.880;8.648;2022-12-22T14:08:51;11.30;99.90
29241;DHT22;16268;49.880;8.648;2022-12-22T14:11:17;11.40;99.90
29241;DHT22;16268;49.880;8.648;2022-12-22T14:13:43;11.40;99.90
29241;DHT22;16268;49.880;8.648;2022-12-22T14:16:12;11.40;99.90
29241;DHT22;16268;49.880;8.648;2022-12-22T14:18:38;11.40;99.90
29241;DHT22;16268;49.880;8.648;2022-12-22T14:21:05;11.40;99.90
29241;DHT22;16268;49.880;8.648;2022-12-22T14:23:38;11.40;99.90
29241;DHT22;16268;49.880;8.648;2022-12-22T14:26:07;11.40;99.90
29241;DHT22;16268;49.880;8.648;2022-12-22T14:28:40;11.40;99.90
29241;DHT22;16268;49.880;8.648;2022-12-22T14:31:14;11.40;99.90
29241;DHT22;16268;49.880;8.648;2022-12-22T14:33:53;11.40;99.90
29241;DHT22;16268;49.880;8.648;2022-12-22T14:36:34;11.40;99.90
29241;DHT22;16268;49.880;8.648;2022-12-22T14:38:59;11.40;99.90
29241;DHT22;16268;49.880;8.648;2022-12-22T14:42:03;11.40;99.90
29241;DHT22;16268;49.880;8.648;2022-12-22T14:44:46;11.50;99.90
29241;DHT22;16268;49.880;8.648;2022-12-22T14:47:14;11.50;99.90
29241;DHT22;16268;49.880;8.648;2022-12-22T14:50:00;11.40;99.90
29241;DHT22;16268;49.880;8.648;2022-12-22T14:55:04;11.40;99.90
29241;DHT22;16268;49.880;8.648;2022-12-22T14:57:41;11.50;99.90
29241;DHT22;16268;49.880;8.648;2022-12-22T15:00:27;11.40;99.90
29241;DHT22;16268;49.880;8.648;2022-12-22T15:02:58;11.40;99.90
29241;DHT22;16268;49.880;8.648;2022-12-22T15:05:30;11.40;99.90
29241;DHT22;16268;49.880;8.648;2022-12-22T15:08:00;11.40;99.90
29241;DHT22;16268;49.880;8.648;2022-12-22T15:10:28;11.40;99.90
29241;DHT22;16268;49.880;8.648;2022-12-22T15:12:58;11.40;99.90
29241;DHT22;16268;49.880;8.648;2022-12-22T15:15:27;11.40;99.90
29241;DHT22;16268;49.880;8.648;2022-12-22T15:17:53;11.30;99.90
29241;DHT22;16268;49.880;8.648;2022-12-22T15:20:24;11.40;99.90
29241;DHT22;16268;49.880;8.648;2022-12-22T15:22:51;11.30;99.90
29241;DHT22;16268;49.880;8.648;2022-12-22T15:25:22;11.30;99.90
29241;DHT22;16268;49.880;8.648;2022-12-22T15:27:48;11.30;99.90
29241;DHT22;16268;49.880;8.648;2022-12-22T15:30:17;11.20;99.90
29241;DHT22;16268;49.880;8.648;2022-12-22T15:32:43;11.20;99.90
29241;DHT22;16268;49.880;8.648;2022-12-22T15:35:15;11.20;99.90
29241;DHT22;16268;49.880;8.648;2022-12-22T15:37:42;11.20;99.90
29241;DHT22;16268;49.880;8.648;2022-12-22T15:40:15;11.20;99.90
29241;DHT22;16268;49.880;8.648;2022-12-22T15:42:41;11.20;99.90
29241;DHT22;16268;49.880;8.648;2022-12-22T15:45:07;11.20;99.90
29241;DHT22;16268;49.880;8.648;2022-12-22T15:47:32;11.20;99.90
29241;DHT22;16268;49.880;8.648;2022-12-22T15:49:58;11.20;99.90
29241;DHT22;16268;49.880;8.648;2022-12-22T15:52:24;11.20;99.90
29241;DHT22;16268;49.880;8.648;2022-12-22T15:54:50;11.20;99.90
29241;DHT22;16268;49.880;8.648;2022-12-22T15:57:16;11.20;99.90
29241;DHT22;16268;49.880;8.648;2022-12-22T15:59:41;11.10;99.90
29241;DHT22;16268;49.880;8.648;2022-12-22T16:02:11;11.10;99.90
29241;DHT22;16268;49.880;8.648;2022-12-22T16:04:37;11.20;99.90
29241;DHT22;16268;49.880;8.648;2022-12-22T16:07:03;11.20;99.90
29241;DHT22;16268;49.880;8.648;2022-12-22T16:09:40;11.20;99.90
29241;DHT22;16268;49.880;8.648;2022-12-22T16:12:14;11.20;99.90
29241;DHT22;16268;49.880;8.648;2022-12-22T16:14:43;11.10;99.90
29241;DHT22;16268;49.880;8.648;2022-12-22T16:17:16;11.10;99.90
29241;DHT22;16268;49.880;8.648;2022-12-22T16:19:42;11.00;99.90
29241;DHT22;16268;49.880;8.648;2022-12-22T16:22:10;11.00;99.90
29241;DHT22;16268;49.880;8.648;2022-12-22T16:24:36;11.00;99.90
29241;DHT22;16268;49.880;8.648;2022-12-22T16:27:03;11.00;99.90
29241;DHT22;16268;49.880;8.648;2022-12-22T16:29:29;10.90;99.90
29241;DHT22;16268;49.880;8.648;2022-12-22T16:32:14;10.90;99.90
29241;DHT22;16268;49.880;8.648;2022-12-22T16:34:40;10.90;99.90
29241;DHT22;16268;49.880;8.648;2022-12-22T16:37:05;10.80;99.90
29241;DHT22;16268;49.880;8.648;2022-12-22T16:39:31;10.80;99.90
29241;DHT22;16268;49.880;8.648;2022-12-22T16:41:58;10.80;99.90
29241;DHT22;16268;49.880;8.648;2022-12-22T16:44:24;10.80;99.90
29241;DHT22;16268;49.880;8.648;2022-12-22T16:46:50;10.80;99.90
29241;DHT22;16268;49.880;8.648;2022-12-22T16:49:17;10.80;99.90
29241;DHT22;16268;49.880;8.648;2022-12-22T16:51:47;10.80;99.90
29241;DHT22;16268;49.880;8.648;2022-12-22T16:54:13;10.80;99.90
29241;DHT22;16268;49.880;8.648;2022-12-22T16:56:39;10.80;99.90
29241;DHT22;16268;49.880;8.648;2022-12-22T16:59:07;10.70;99.90
29241;DHT22;16268;49.880;8.648;2022-12-22T17:06:47;10.70;99.90
29241;DHT22;16268;49.880;8.648;2022-12-22T17:09:18;10.70;99.90
29241;DHT22;16268;49.880;8.648;2022-12-22T17:11:45;10.70;99.90
29241;DHT22;16268;49.880;8.648;2022-12-22T17:16:43;10.70;99.90
29241;DHT22;16268;49.880;8.648;2022-12-22T17:19:10;10.80;99.90
29241;DHT22;16268;49.880;8.648;2022-12-22T17:21:35;10.70;99.90
29241;DHT22;16268;49.880;8.648;2022-12-22T17:24:01;10.80;99.90
29241;DHT22;16268;49.880;8.648;2022-12-22T17:26:29;10.70;99.90
29241;DHT22;16268;49.880;8.648;2022-12-22T17:28:57;10.70;99.90
29241;DHT22;16268;49.880;8.648;2022-12-22T17:31:23;10.70;99.90
29241;DHT22;16268;49.880;8.648;2022-12-22T17:33:49;10.60;99.90
29241;DHT22;16268;49.880;8.648;2022-12-22T17:38:42;10.70;99.90
29241;DHT22;16268;49.880;8.648;2022-12-22T17:41:12;10.70;99.90
29241;DHT22;16268;49.880;8.648;2022-12-22T17:43:39;10.70;99.90
29241;DHT22;16268;49.880;8.648;2022-12-22T17:46:07;10.70;99.90
29241;DHT22;16268;49.880;8.648;2022-12-22T17:48:33;10.70;99.90
29241;DHT22;16268;49.880;8.648;2022-12-22T17:50:59;10.60;99.90
29241;DHT22;16268;49.880;8.648;2022-12-22T17:53:25;10.60;99.90
29241;DHT22;16268;49.880;8.648;2022-12-22T17:55:51;10.60;99.90
29241;DHT22;16268;49.880;8.648;2022-12-22T17:58:16;10.60;99.90
29241;DHT22;16268;49.880;8.648;2022-12-22T18:00:42;10.60;99.90
29241;DHT22;16268;49.880;8.648;2022-12-22T18:03:12;10.60;99.90